Airfield :
LOGIN :

Register | Disclaimer

   EN    FR    IT 

 










Legend :    VFR   Marginal VFR   IFR   Intensive IFR   Very Intensive IFR
Visi :
Ceiling :
>= 8 km
>= 3000ft
5 to 8 km
1000 to 3000 ft
1500m to 5 km
500 to 1000 ft
800 to 1500m
200 to 500 ft
< 800m
< 200 ft
Symbols :   Thunderstorms  Fog  Heavy snow  Heavy precipitations  Wind > 20 kt
SIGMETs :     Misc.  Thunderstorms  Icing  Turbulence  Mountain Waves  Volcanic Ashes






- Airport Elevation : 200 ft


EBBL - Klein Brogel AB

CURRENT METAR :
  • 170711Z AUTO VRB01KT 1100 BR NCD M01/M02 Q1012 AMB

EXPIRED METARs :
  • 170649Z AUTO VRB01KT 4400 BR NCD M01/M01 Q1012 GRN
  • 170638Z AUTO VRB01KT 3600 BR NCD M01/M01 Q1012 YLO
  • 170634Z AUTO VRB01KT 4500 NCD M01/M01 Q1012 GRN
  • 170613Z AUTO VRB01KT 7000 NCD M01/M01 Q1012 WHT
  • 170555Z AUTO VRB01KT 4600 NCD M02/M02 Q1012 GRN
  • 170545Z AUTO VRB01KT 6000 FEW004/// M01/M02 Q1011 WHT
  • 170533Z AUTO VRB01KT 4400 BR NCD M02/M02 Q1011 GRN
  • 170519Z AUTO VRB01KT 4900 NCD M01/M01 Q1011 GRN
  • 170455Z AUTO VRB01KT 6000 NCD M01/M01 Q1011 WHT
  • 170425Z AUTO VRB01KT 5000 NCD M01/M02 Q1011 WHT
  • 170416Z AUTO VRB02KT 7000 NCD M01/M01 Q1011 WHT

Expired Forecast.



MET'MAP, your aeronautical weather chart ! - Copyright ORBIFLY December 2007 - Disclaimer

ORBIFLY MET'MAP TEAM :

Programming & Development : Alexandra Zaïnal
Concept & Development : Baudouin d'Aumeries
Co-Development & Prog : Marc-Olivier Méhu
Technical & hardware support : Manuel Goepfert

Contact : metmap@orbifly.com




SOURCES & CREDITS :

   NOAA